createdAt,value
2023-05-16T00:02:03.889Z,9.80
2023-05-16T00:04:38.220Z,8.45
2023-05-16T00:07:10.208Z,9.02
2023-05-16T00:09:45.943Z,7.82
2023-05-16T00:12:19.758Z,8.65
2023-05-16T00:14:53.673Z,7.38
2023-05-16T00:17:28.894Z,10.10
2023-05-16T00:20:03.044Z,7.57
2023-05-16T00:22:36.312Z,7.88
2023-05-16T00:25:09.455Z,7.35
2023-05-16T00:27:42.350Z,7.97
2023-05-16T00:30:15.067Z,7.43
2023-05-16T00:32:48.268Z,8.75
2023-05-16T00:35:20.769Z,8.25
2023-05-16T00:37:55.450Z,8.95
2023-05-16T00:40:28.217Z,7.68
2023-05-16T00:43:01.564Z,9.60
2023-05-16T00:45:33.508Z,9.80
2023-05-16T00:48:07.448Z,8.55
2023-05-16T00:50:39.454Z,7.30
2023-05-16T00:53:12.678Z,8.75
2023-05-16T00:55:45.256Z,7.78
2023-05-16T00:58:18.798Z,7.95
2023-05-16T01:00:51.218Z,8.55
2023-05-16T01:03:24.235Z,11.63
2023-05-16T01:05:58.559Z,7.82
2023-05-16T01:08:31.040Z,9.00
2023-05-16T01:11:27.835Z,7.93
2023-05-16T01:14:06.296Z,9.48
2023-05-16T01:17:00.155Z,9.75
2023-05-16T01:19:47.938Z,8.00
2023-05-16T01:22:37.988Z,7.65
2023-05-16T01:25:29.343Z,8.90
2023-05-16T01:28:03.008Z,11.63
2023-05-16T01:30:39.799Z,7.25
2023-05-16T01:33:13.878Z,9.98
2023-05-16T01:36:13.438Z,10.07
2023-05-16T01:39:33.544Z,11.48
2023-05-16T01:42:09.925Z,10.55
2023-05-16T01:45:01.115Z,10.15
2023-05-16T01:47:37.324Z,9.82
2023-05-16T01:50:17.797Z,11.88
2023-05-16T01:53:11.758Z,11.73
2023-05-16T01:55:51.431Z,10.43
2023-05-16T01:58:29.661Z,13.13
2023-05-16T02:01:05.585Z,10.48
2023-05-16T02:03:38.684Z,14.82
2023-05-16T02:06:12.342Z,12.30
2023-05-16T02:08:45.430Z,12.75
2023-05-16T02:11:17.930Z,11.52
2023-05-16T02:13:50.199Z,11.20
2023-05-16T02:16:22.084Z,12.18
2023-05-16T02:18:54.888Z,10.18
2023-05-16T02:21:27.928Z,15.55
2023-05-16T02:24:00.651Z,12.57
2023-05-16T02:26:32.577Z,13.05
2023-05-16T02:29:06.192Z,12.35
2023-05-16T02:31:38.277Z,12.10
2023-05-16T02:34:11.350Z,11.80
2023-05-16T02:36:43.705Z,10.23
2023-05-16T02:39:16.016Z,11.18
2023-05-16T02:41:48.407Z,12.40
2023-05-16T02:44:21.095Z,13.90
2023-05-16T02:46:53.071Z,12.98
2023-05-16T02:49:27.150Z,11.77
2023-05-16T02:51:59.532Z,11.35
2023-05-16T02:54:32.697Z,12.15
2023-05-16T02:57:04.883Z,11.13
2023-05-16T02:59:38.161Z,12.20
2023-05-16T03:02:11.330Z,14.43
2023-05-16T03:04:45.226Z,14.60
2023-05-16T03:07:18.283Z,14.48
2023-05-16T03:09:51.395Z,14.20
2023-05-16T03:12:24.061Z,16.52
2023-05-16T03:14:56.013Z,18.60
2023-05-16T03:17:29.286Z,18.10
2023-05-16T03:20:03.871Z,20.80
2023-05-16T03:22:36.589Z,20.73
2023-05-16T03:25:08.831Z,20.48
2023-05-16T03:27:46.463Z,21.25
2023-05-16T03:30:20.001Z,21.15
2023-05-16T03:32:53.288Z,23.42
2023-05-16T03:35:26.335Z,21.50
2023-05-16T03:37:58.510Z,22.85
2023-05-16T03:40:32.267Z,23.35
2023-05-16T03:43:05.306Z,25.75
2023-05-16T03:48:32.610Z,29.88
2023-05-16T03:51:05.862Z,25.80
2023-05-16T03:53:38.824Z,29.55
2023-05-16T03:56:10.709Z,28.73
2023-05-16T03:58:46.044Z,32.42
2023-05-16T04:01:20.121Z,30.77
2023-05-16T04:03:53.331Z,32.13
2023-05-16T04:06:26.273Z,32.22
2023-05-16T04:08:58.292Z,32.78
2023-05-16T04:11:31.474Z,36.72
2023-05-16T04:14:24.766Z,33.85
2023-05-16T04:16:56.803Z,35.60
2023-05-16T04:19:29.610Z,37.65
2023-05-16T04:22:01.950Z,39.35
2023-05-16T04:24:34.549Z,35.35
2023-05-16T04:27:10.583Z,36.67
2023-05-16T04:29:43.911Z,36.10
2023-05-16T04:32:17.358Z,37.20
2023-05-16T04:34:53.655Z,35.92
2023-05-16T04:37:25.637Z,37.45
2023-05-16T04:39:59.393Z,38.40
2023-05-16T04:42:32.644Z,42.33
2023-05-16T04:45:07.136Z,39.85
2023-05-16T04:47:40.815Z,43.22
2023-05-16T04:50:13.622Z,41.35
2023-05-16T04:52:45.552Z,40.55
2023-05-16T04:55:18.500Z,37.10
2023-05-16T04:57:51.257Z,41.50
2023-05-16T05:00:23.650Z,39.70
2023-05-16T05:02:57.508Z,36.83
2023-05-16T05:05:30.680Z,36.22
2023-05-16T05:08:03.368Z,37.80
2023-05-16T05:10:35.875Z,38.13
2023-05-16T05:13:08.873Z,40.53
2023-05-16T05:15:41.191Z,38.35
2023-05-16T05:18:14.558Z,38.83
2023-05-16T05:20:47.085Z,39.22
2023-05-16T05:23:20.378Z,41.22
2023-05-16T05:25:52.732Z,43.38
2023-05-16T05:28:26.056Z,44.78
2023-05-16T05:30:58.500Z,47.38
2023-05-16T05:33:31.376Z,43.38
2023-05-16T05:36:05.178Z,48.30
2023-05-16T05:41:30.378Z,45.00
2023-05-16T05:44:04.564Z,42.20
2023-05-16T05:46:37.937Z,43.08
2023-05-16T05:49:10.353Z,47.05
2023-05-16T05:51:44.155Z,50.63
2023-05-16T05:54:16.802Z,46.35
2023-05-16T05:56:51.625Z,51.38
2023-05-16T05:59:24.599Z,52.42
2023-05-16T06:01:59.737Z,45.72
2023-05-16T06:04:33.328Z,47.85
2023-05-16T06:07:07.429Z,49.70
2023-05-16T06:09:39.852Z,51.30
2023-05-16T06:12:13.028Z,53.22
2023-05-16T06:14:47.757Z,55.17
2023-05-16T06:17:20.921Z,45.95
2023-05-16T06:19:52.790Z,49.08
2023-05-16T06:22:26.086Z,49.25
2023-05-16T06:24:58.420Z,44.80
2023-05-16T06:27:33.485Z,51.63
2023-05-16T06:30:06.541Z,48.67
2023-05-16T06:32:42.087Z,48.13
2023-05-16T06:35:14.100Z,49.25
2023-05-16T06:37:48.381Z,49.55
2023-05-16T06:40:20.771Z,47.95
2023-05-16T06:42:53.550Z,35.45
2023-05-16T06:45:26.959Z,44.22
2023-05-16T06:48:01.053Z,40.83
2023-05-16T06:50:54.928Z,40.05
2023-05-16T06:53:28.015Z,43.15
2023-05-16T06:56:00.429Z,43.08
2023-05-16T06:58:33.807Z,44.40
2023-05-16T07:01:05.943Z,45.78
2023-05-16T07:03:40.244Z,46.55
2023-05-16T07:06:12.647Z,43.70
2023-05-16T07:08:46.143Z,40.40
2023-05-16T07:11:18.535Z,44.00
2023-05-16T07:13:52.831Z,50.55
2023-05-16T07:16:28.404Z,46.38
2023-05-16T07:21:55.235Z,42.92
2023-05-16T07:24:30.088Z,44.55
2023-05-16T07:27:02.107Z,47.72
2023-05-16T07:29:37.314Z,47.95
2023-05-16T07:32:09.739Z,53.60
2023-05-16T07:34:43.015Z,57.30
2023-05-16T07:37:16.199Z,55.60
2023-05-16T07:39:51.098Z,56.75
2023-05-16T07:42:25.821Z,52.83
2023-05-16T07:50:47.273Z,52.40
2023-05-16T07:53:22.790Z,49.97
2023-05-16T07:55:57.417Z,52.80
2023-05-16T07:58:30.135Z,48.28
2023-05-16T08:01:02.149Z,42.58
2023-05-16T08:03:39.122Z,49.70
2023-05-16T08:06:12.589Z,44.42
2023-05-16T08:08:48.068Z,44.50
2023-05-16T08:11:22.592Z,50.20
2023-05-16T08:13:56.602Z,52.55
2023-05-16T08:16:31.409Z,47.10
2023-05-16T08:19:05.223Z,42.80
2023-05-16T08:21:38.117Z,45.45
2023-05-16T08:24:32.406Z,47.35
2023-05-16T08:27:05.109Z,46.25
2023-05-16T08:29:37.853Z,44.95
2023-05-16T08:32:11.124Z,51.10
2023-05-16T08:34:47.513Z,41.67
2023-05-16T08:37:19.498Z,46.60
2023-05-16T08:39:56.062Z,45.03
2023-05-16T08:42:28.496Z,47.92
2023-05-16T08:45:02.182Z,48.28
2023-05-16T08:47:36.943Z,42.90
2023-05-16T08:50:11.325Z,48.65
2023-05-16T08:52:45.972Z,39.33
2023-05-16T08:55:23.641Z,42.63
2023-05-16T08:57:57.799Z,38.22
2023-05-16T09:00:34.286Z,42.00
2023-05-16T09:03:07.459Z,41.47
2023-05-16T09:05:40.387Z,42.42
2023-05-16T09:08:12.512Z,43.30
2023-05-16T09:10:46.563Z,43.67
2023-05-16T09:13:19.119Z,46.55
2023-05-16T09:16:23.012Z,42.65
2023-05-16T09:18:59.170Z,39.97
2023-05-16T09:21:35.940Z,45.85
2023-05-16T09:24:09.966Z,44.67
2023-05-16T09:27:15.618Z,46.42
2023-05-16T09:29:51.881Z,45.88
2023-05-16T09:32:26.782Z,43.78
2023-05-16T09:34:59.850Z,49.97
2023-05-16T09:37:33.685Z,45.50
2023-05-16T09:40:07.317Z,46.50
2023-05-16T09:42:40.446Z,47.50
2023-05-16T09:45:14.431Z,41.83
2023-05-16T09:47:47.886Z,46.47
2023-05-16T09:50:20.068Z,46.55
2023-05-16T09:52:56.113Z,41.20
2023-05-16T09:55:29.468Z,44.78
2023-05-16T09:58:04.599Z,46.83
2023-05-16T10:00:36.983Z,40.17
2023-05-16T10:03:12.097Z,40.78
2023-05-16T10:05:44.776Z,41.47
2023-05-16T10:08:16.981Z,48.95
2023-05-16T10:10:56.095Z,47.20
2023-05-16T10:13:34.193Z,42.00
2023-05-16T10:16:12.426Z,51.55
2023-05-16T10:18:45.722Z,38.05
2023-05-16T10:21:19.728Z,43.22
2023-05-16T10:23:53.398Z,45.70
2023-05-16T10:26:26.445Z,42.88
2023-05-16T10:29:03.138Z,41.15
2023-05-16T10:31:36.171Z,40.95
2023-05-16T10:34:09.151Z,41.97
2023-05-16T10:36:41.218Z,40.80
2023-05-16T10:39:15.598Z,39.17
2023-05-16T10:41:47.996Z,40.28
2023-05-16T10:44:21.055Z,39.05
2023-05-16T10:46:53.017Z,39.97
2023-05-16T10:49:27.887Z,37.42
2023-05-16T10:52:09.513Z,36.78
2023-05-16T10:54:45.370Z,39.63
2023-05-16T10:57:22.953Z,33.53
2023-05-16T10:59:59.312Z,31.27
2023-05-16T11:02:34.773Z,28.33
2023-05-16T11:05:09.313Z,33.42
2023-05-16T11:07:41.639Z,29.50
2023-05-16T11:10:17.518Z,31.65
2023-05-16T11:12:51.906Z,27.98
2023-05-16T11:15:28.801Z,27.70
2023-05-16T11:18:07.166Z,33.97
2023-05-16T11:20:41.345Z,25.10
2023-05-16T11:23:22.233Z,23.70
2023-05-16T11:25:58.088Z,25.20
2023-05-16T11:28:30.515Z,21.08
2023-05-16T11:31:05.673Z,23.30
2023-05-16T11:33:40.040Z,21.40
2023-05-16T11:36:16.178Z,19.70
2023-05-16T11:38:48.477Z,18.00
2023-05-16T11:41:22.939Z,22.02
2023-05-16T11:43:56.036Z,22.35
2023-05-16T11:46:28.735Z,24.27
2023-05-16T11:49:01.178Z,29.08
2023-05-16T11:51:35.215Z,26.30
2023-05-16T11:54:09.618Z,20.13
2023-05-16T11:56:43.211Z,26.15
2023-05-16T11:59:15.736Z,25.02
2023-05-16T12:01:51.100Z,20.88
2023-05-16T12:04:23.564Z,22.77
2023-05-16T12:07:01.915Z,21.48
2023-05-16T12:09:34.244Z,19.60
2023-05-16T12:12:08.273Z,16.60
2023-05-16T12:14:40.767Z,14.65
2023-05-16T12:17:14.153Z,12.15
2023-05-16T12:19:46.551Z,11.02
2023-05-16T12:22:23.704Z,10.55
2023-05-16T12:24:55.773Z,11.02
2023-05-16T12:27:28.910Z,13.18
2023-05-16T12:30:01.213Z,10.65
2023-05-16T12:32:37.841Z,13.00
2023-05-16T12:35:13.519Z,9.93
2023-05-16T12:37:46.106Z,15.68
2023-05-16T12:40:20.539Z,10.60
2023-05-16T12:42:54.044Z,9.43
2023-05-16T12:45:29.839Z,10.35
2023-05-16T12:48:08.521Z,12.60
2023-05-16T12:50:42.294Z,10.80
2023-05-16T12:53:15.585Z,12.85
2023-05-16T12:55:48.620Z,12.63
2023-05-16T12:58:21.102Z,11.10
2023-05-16T13:00:54.097Z,11.13
2023-05-16T13:03:26.304Z,12.32
2023-05-16T13:06:00.258Z,12.15
2023-05-16T13:08:32.901Z,9.70
2023-05-16T13:11:06.780Z,14.00
2023-05-16T13:13:39.347Z,11.45
2023-05-16T13:16:12.439Z,11.23
2023-05-16T13:18:44.526Z,11.98
2023-05-16T13:21:18.036Z,10.50
2023-05-16T13:23:50.042Z,10.60
2023-05-16T13:26:22.850Z,9.38
2023-05-16T13:28:57.913Z,12.35
2023-05-16T13:31:30.961Z,9.35
2023-05-16T13:34:03.384Z,8.38
2023-05-16T13:36:52.422Z,8.73
2023-05-16T13:39:27.173Z,6.63
2023-05-16T13:42:00.010Z,9.30
2023-05-16T13:44:33.603Z,6.95
2023-05-16T13:47:05.677Z,6.03
2023-05-16T13:49:39.297Z,8.73
2023-05-16T13:52:11.899Z,7.25
2023-05-16T13:54:45.088Z,6.68
2023-05-16T13:57:17.353Z,7.15
2023-05-16T14:02:26.438Z,12.30
2023-05-16T14:04:59.378Z,11.30
2023-05-16T14:07:31.509Z,9.27
2023-05-16T14:10:05.408Z,9.18
2023-05-16T14:12:38.072Z,8.13
2023-05-16T14:15:11.368Z,11.27
2023-05-16T14:17:43.784Z,8.32
2023-05-16T14:20:16.898Z,9.23
2023-05-16T14:22:48.870Z,8.07
2023-05-16T14:25:21.511Z,9.80
2023-05-16T14:27:53.931Z,10.90
2023-05-16T14:30:27.650Z,9.77
2023-05-16T14:33:01.257Z,7.47
2023-05-16T14:35:34.518Z,10.05
2023-05-16T14:38:07.446Z,8.35
2023-05-16T14:40:40.533Z,9.55
2023-05-16T14:43:12.504Z,8.43
2023-05-16T14:45:45.450Z,8.65
2023-05-16T14:48:17.985Z,7.28
2023-05-16T14:50:52.100Z,7.15
2023-05-16T14:53:24.267Z,7.80
2023-05-16T14:55:56.956Z,7.80
2023-05-16T14:58:29.204Z,9.48
2023-05-16T15:01:02.379Z,8.80
2023-05-16T15:03:46.849Z,6.43
2023-05-16T15:06:27.437Z,6.55
2023-05-16T15:09:00.244Z,6.43
2023-05-16T15:11:32.316Z,9.77
2023-05-16T15:14:05.419Z,6.85
2023-05-16T15:16:37.870Z,7.90
2023-05-16T15:19:10.920Z,9.35
2023-05-16T15:21:43.804Z,6.35
2023-05-16T15:24:17.363Z,7.53
2023-05-16T15:26:50.055Z,8.90
2023-05-16T15:29:23.204Z,7.32
2023-05-16T15:31:55.228Z,7.45
2023-05-16T15:34:29.148Z,9.23
2023-05-16T15:37:01.342Z,8.45
2023-05-16T15:39:34.300Z,6.75
2023-05-16T15:42:11.072Z,6.68
2023-05-16T15:44:44.056Z,11.15
2023-05-16T15:47:16.416Z,7.45
2023-05-16T15:49:49.489Z,7.85
2023-05-16T15:52:23.004Z,8.25
2023-05-16T15:54:55.725Z,7.25
2023-05-16T15:57:28.134Z,10.50
2023-05-16T16:00:00.816Z,10.90
2023-05-16T16:02:32.945Z,8.77
2023-05-16T16:05:06.158Z,12.20
2023-05-16T16:07:38.584Z,9.70
2023-05-16T16:10:12.416Z,9.73
2023-05-16T16:12:55.623Z,9.85
2023-05-16T16:15:32.554Z,13.88
2023-05-16T16:18:06.855Z,10.57
2023-05-16T16:20:39.653Z,8.07
2023-05-16T16:23:11.712Z,13.75
2023-05-16T16:25:44.765Z,10.45
2023-05-16T16:28:17.255Z,11.57
2023-05-16T16:30:50.773Z,9.73
2023-05-16T16:33:23.487Z,9.57
2023-05-16T16:35:55.897Z,12.35
2023-05-16T16:38:28.630Z,10.35
2023-05-16T16:41:01.223Z,11.18
2023-05-16T16:43:34.209Z,13.95
2023-05-16T16:46:07.452Z,10.52
2023-05-16T16:48:41.765Z,10.25
2023-05-16T16:51:13.720Z,9.38
2023-05-16T16:53:46.468Z,12.45
2023-05-16T16:56:19.631Z,11.77
2023-05-16T16:58:53.583Z,11.20
2023-05-16T17:01:28.971Z,10.95
2023-05-16T17:04:03.152Z,13.52
2023-05-16T17:06:35.593Z,13.77
2023-05-16T17:09:13.893Z,11.65
2023-05-16T17:11:50.194Z,10.82
2023-05-16T17:14:24.575Z,9.32
2023-05-16T17:16:56.701Z,8.50
2023-05-16T17:19:29.602Z,12.55
2023-05-16T17:22:02.325Z,11.85
2023-05-16T17:24:35.250Z,7.88
2023-05-16T17:27:07.627Z,12.98
2023-05-16T17:29:40.568Z,9.23
2023-05-16T17:32:12.589Z,11.35
2023-05-16T17:34:45.219Z,9.27
2023-05-16T17:37:17.753Z,8.18
2023-05-16T17:39:50.764Z,11.02
2023-05-16T17:42:22.817Z,7.95
2023-05-16T17:44:55.461Z,11.02
2023-05-16T17:47:27.414Z,14.00
2023-05-16T17:50:00.456Z,11.80
2023-05-16T17:52:32.876Z,8.18
2023-05-16T17:55:07.181Z,11.85
2023-05-16T17:57:39.926Z,9.07
2023-05-16T18:00:14.965Z,9.38
2023-05-16T18:02:49.911Z,10.80
2023-05-16T18:05:22.267Z,9.95
2023-05-16T18:07:55.158Z,10.32
2023-05-16T18:10:31.584Z,7.47
2023-05-16T18:13:12.734Z,6.80
2023-05-16T18:15:45.526Z,8.82
2023-05-16T18:18:18.808Z,6.88
2023-05-16T18:20:53.619Z,6.28
2023-05-16T18:23:26.121Z,9.52
2023-05-16T18:25:58.967Z,8.70
2023-05-16T18:28:30.946Z,6.80
2023-05-16T18:31:04.125Z,8.30
2023-05-16T18:33:36.805Z,5.72
2023-05-16T18:36:09.676Z,6.85
2023-05-16T18:38:42.042Z,5.97
2023-05-16T18:41:18.484Z,10.20
2023-05-16T18:43:51.080Z,9.25
2023-05-16T18:46:24.141Z,6.15
2023-05-16T18:48:57.854Z,8.55
2023-05-16T18:51:31.782Z,6.60
2023-05-16T18:54:04.227Z,7.55
2023-05-16T18:56:58.219Z,8.55
2023-05-16T18:59:30.426Z,6.95
2023-05-16T19:02:04.364Z,8.13
2023-05-16T19:04:36.564Z,10.60
2023-05-16T19:07:10.994Z,6.78
2023-05-16T19:09:43.406Z,8.32
2023-05-16T19:12:16.634Z,8.70
2023-05-16T19:14:49.430Z,8.30
2023-05-16T19:17:24.673Z,9.65
2023-05-16T19:19:59.845Z,6.57
2023-05-16T19:22:32.755Z,9.77
2023-05-16T19:25:06.609Z,7.72
2023-05-16T19:27:39.111Z,11.32
2023-05-16T19:30:14.032Z,13.48
2023-05-16T19:32:46.667Z,9.00
2023-05-16T19:35:19.529Z,7.22
2023-05-16T19:37:52.585Z,7.95
2023-05-16T19:40:24.727Z,6.13
2023-05-16T19:45:51.109Z,8.48
2023-05-16T19:48:27.130Z,8.57
2023-05-16T19:50:59.858Z,7.50
2023-05-16T19:53:32.460Z,13.45
2023-05-16T19:56:05.150Z,9.88
2023-05-16T19:58:37.644Z,10.23
2023-05-16T20:01:11.054Z,8.98
2023-05-16T20:03:44.331Z,11.25
2023-05-16T20:06:16.868Z,7.95
2023-05-16T20:08:49.884Z,8.73
2023-05-16T20:11:23.146Z,8.10
2023-05-16T20:13:56.472Z,9.02
2023-05-16T20:16:28.655Z,8.70
2023-05-16T20:19:02.096Z,12.88
2023-05-16T20:21:34.515Z,12.68
2023-05-16T20:24:07.097Z,9.23
2023-05-16T20:26:40.530Z,9.50
2023-05-16T20:29:13.366Z,8.90
2023-05-16T20:31:45.677Z,7.95
2023-05-16T20:34:17.675Z,10.55
2023-05-16T20:36:50.487Z,8.70
2023-05-16T20:39:23.343Z,11.55
2023-05-16T20:41:56.167Z,11.93
2023-05-16T20:44:29.709Z,12.57
2023-05-16T20:47:01.652Z,10.68
2023-05-16T20:49:37.903Z,12.07
2023-05-16T20:52:10.513Z,10.60
2023-05-16T20:54:45.128Z,10.90
2023-05-16T20:57:18.692Z,11.73
2023-05-16T20:59:51.442Z,10.95
2023-05-16T21:02:24.562Z,8.27
2023-05-16T21:04:59.286Z,13.43
2023-05-16T21:07:34.873Z,10.50
2023-05-16T21:10:07.586Z,10.13
2023-05-16T21:12:39.757Z,13.27
2023-05-16T21:15:12.547Z,13.82
2023-05-16T21:17:45.012Z,8.80
2023-05-16T21:20:17.148Z,9.20
2023-05-16T21:22:49.957Z,10.80
2023-05-16T21:25:22.470Z,12.07
2023-05-16T21:27:54.819Z,11.60
2023-05-16T21:30:27.693Z,8.68
2023-05-16T21:33:00.314Z,9.45
2023-05-16T21:35:32.360Z,13.38
2023-05-16T21:38:05.182Z,8.90
2023-05-16T21:40:37.631Z,12.80
2023-05-16T21:43:09.975Z,15.38
2023-05-16T21:45:42.853Z,12.87
2023-05-16T21:48:15.389Z,14.77
2023-05-16T21:50:48.884Z,12.73
2023-05-16T21:53:23.963Z,13.82
2023-05-16T21:55:56.725Z,14.10
2023-05-16T21:58:29.077Z,19.13
2023-05-16T22:01:01.301Z,14.82
2023-05-16T22:03:34.237Z,13.32
2023-05-16T22:06:06.834Z,14.57
2023-05-16T22:08:39.194Z,12.23
2023-05-16T22:11:12.429Z,16.33
2023-05-16T22:13:44.383Z,15.20
2023-05-16T22:16:17.670Z,15.30
2023-05-16T22:18:49.742Z,19.50
2023-05-16T22:21:23.304Z,19.40
2023-05-16T22:23:55.244Z,21.07
2023-05-16T22:26:27.995Z,24.65
2023-05-16T22:29:00.375Z,24.05
2023-05-16T22:31:32.329Z,26.42
2023-05-16T22:34:05.255Z,26.27
2023-05-16T22:36:37.373Z,24.70
2023-05-16T22:39:11.064Z,26.52
2023-05-16T22:41:43.141Z,17.85
2023-05-16T22:44:16.319Z,20.88
2023-05-16T22:46:48.825Z,17.58
2023-05-16T22:49:21.386Z,17.05
2023-05-16T22:51:53.330Z,16.10
2023-05-16T22:54:25.769Z,11.65
2023-05-16T22:56:58.101Z,16.13
2023-05-16T22:59:31.470Z,18.50
2023-05-16T23:02:03.834Z,15.73
2023-05-16T23:04:37.660Z,15.57
2023-05-16T23:07:09.722Z,12.40
2023-05-16T23:09:42.479Z,14.32
2023-05-16T23:12:14.825Z,12.27
2023-05-16T23:14:47.866Z,16.40
2023-05-16T23:17:19.929Z,11.18
2023-05-16T23:19:52.915Z,12.15
2023-05-16T23:22:25.280Z,11.13
2023-05-16T23:24:58.477Z,10.15
2023-05-16T23:27:30.469Z,9.65
2023-05-16T23:30:03.790Z,8.75
2023-05-16T23:32:36.568Z,10.65
2023-05-16T23:35:09.628Z,8.45
2023-05-16T23:37:41.660Z,8.13
2023-05-16T23:40:14.730Z,11.98
2023-05-16T23:42:46.772Z,10.13
2023-05-16T23:45:19.580Z,8.98
2023-05-16T23:47:52.054Z,14.30
2023-05-16T23:50:24.546Z,12.43
2023-05-16T23:52:56.547Z,9.47
2023-05-16T23:55:28.652Z,9.23
2023-05-16T23:58:00.841Z,7.95
